Weather History for KEWK - March, 2014

Change the Weather History Date:

Tuesday, March 4, 2014

  Actual Average Record
Temperature  
Mean Temperature 22 °F -  
Max Temperature 35 °F 45 °F 69 °F (2005)
Min Temperature 8 °F 25 °F 0 °F (2002)
Degree Days  
Heating Degree Days 44    
Moisture  
Dew Point 11 °F    
Average Humidity 60    
Maximum Humidity 74    
Minimum Humidity 52    
Precipitation  
Precipitation 0.00 in - - ()
Sea Level Pressure  
Sea Level Pressure 30.05 in    
Wind  
Wind Speed 12 mph (South)    
Max Wind Speed 17 mph    
Max Gust Speed 24 mph    
Visibility 10 miles    
Events      
Averages and records for this station are not official NWS values.
T = Trace of Precipitation, MM = Missing Value Source: NWS Daily Summary

Daily Weather History Graph

Daily Weather History Graph

Search for Another Location

Airport or City:

Trip Planner

Search our weather history database for the weather conditions in past years. The results will help you decide how hot, cold, wet, or windy it might be!

Date:

Astronomy

Mar. 04, 2014 Rise Set
Actual Time 6:56 AM CST 6:25 PM CST
Civil Twilight 6:30 AM CST 6:51 PM CST
Nautical Twilight 5:59 AM CST 7:22 PM CST
Astronomical Twilight 5:29 AM CST 7:53 PM CST
Moon 8:47 AM CST (3/4) 10:29 PM CST (3/4)
Length of Visible Light 12h 21m
Length of Day
11h 29m
Waxing Crescent, 15% of the Moon is Illuminated
Mar 4
Waxing Crescent
Mar 8
First Quarter
Mar 16
Full
Mar 23
Last Quarter
Mar 30
New

Hourly Weather History & Observations

Time (CST) Temp. Windchill Dew Point Humidity Pressure Visibility Wind Dir Wind Speed Gust Speed Precip Events Conditions
12:15 AM 10.4 °F -4.8 °F -2.2 °F 57% 30.17 in 10.0 mi South 12.7 mph - N/A   Clear
12:35 AM 10.4 °F -4.1 °F -2.2 °F 57% 30.17 in 10.0 mi South 11.5 mph - N/A   Clear
12:55 AM 12.2 °F 1.7 °F -0.4 °F 57% 30.18 in 10.0 mi SW 6.9 mph - N/A   Clear
1:15 AM 10.4 °F -0.4 °F -2.2 °F 57% 30.18 in 10.0 mi SSW 6.9 mph - N/A   Clear
1:35 AM 10.4 °F -2.4 °F -0.4 °F 62% 30.18 in 10.0 mi SSW 9.2 mph - N/A   Clear
1:55 AM 10.4 °F -3.3 °F -0.4 °F 62% 30.17 in 10.0 mi SSW 10.4 mph - N/A   Clear
2:15 AM 12.2 °F -2.5 °F -0.4 °F 57% 30.16 in 10.0 mi SSW 12.7 mph - N/A   Clear
2:35 AM 12.2 °F -4.3 °F -2.2 °F 53% 30.14 in 10.0 mi SSW 16.1 mph - N/A   Clear
2:55 AM 12.2 °F -4.3 °F -2.2 °F 53% 30.14 in 10.0 mi SSW 16.1 mph - N/A   Clear
3:15 AM 12.2 °F -4.3 °F -0.4 °F 57% 30.13 in 10.0 mi SSW 16.1 mph - N/A   Clear
3:35 AM 12.2 °F -3.7 °F -0.4 °F 57% 30.11 in 10.0 mi South 15.0 mph - N/A   Clear
3:55 AM 12.2 °F -4.3 °F -0.4 °F 57% 30.10 in 10.0 mi SSW 16.1 mph - N/A   Clear
4:15 AM 12.2 °F -1.0 °F -0.4 °F 57% 30.11 in 10.0 mi SSW 10.4 mph - N/A   Clear
4:35 AM 12.2 °F -1.8 °F -0.4 °F 57% 30.11 in 10.0 mi SSW 11.5 mph - N/A   Clear
4:55 AM 12.2 °F -2.5 °F -0.4 °F 57% 30.10 in 10.0 mi South 12.7 mph - N/A   Clear
5:15 AM 12.2 °F -3.1 °F 1.4 °F 62% 30.10 in 10.0 mi South 13.8 mph - N/A   Clear
5:35 AM 12.2 °F 0.7 °F 1.4 °F 62% 30.11 in 10.0 mi South 8.1 mph - N/A   Clear
5:55 AM 12.2 °F 0.7 °F 1.4 °F 62% 30.11 in 10.0 mi SSE 8.1 mph - N/A   Clear
6:15 AM 12.2 °F 2.9 °F -0.4 °F 57% 30.11 in 10.0 mi South 5.8 mph - N/A   Clear
6:35 AM 10.4 °F 0.8 °F -0.4 °F 62% 30.10 in 10.0 mi SE 5.8 mph - N/A   Clear
6:55 AM 8.6 °F -4.7 °F -0.4 °F 67% 30.08 in 10.0 mi SE 9.2 mph - N/A   Clear
7:15 AM 8.6 °F -4.7 °F -0.4 °F 67% 30.08 in 10.0 mi SE 9.2 mph - N/A   Clear
7:35 AM 10.4 °F -3.3 °F -0.4 °F 62% 30.08 in 10.0 mi SE 10.4 mph - N/A   Clear
7:55 AM 10.4 °F -2.4 °F -0.4 °F 62% 30.09 in 10.0 mi SSE 9.2 mph - N/A   Clear
8:15 AM 12.2 °F -1.8 °F 1.4 °F 62% 30.09 in 10.0 mi SSE 11.5 mph - N/A   Clear
8:35 AM 14.0 °F 0.5 °F 1.4 °F 57% 30.08 in 10.0 mi SSE 11.5 mph - N/A   Clear
8:55 AM 15.8 °F 2.1 °F 3.2 °F 58% 30.09 in 10.0 mi SSE 12.7 mph - N/A   Clear
9:15 AM 17.6 °F 3.7 °F 5.0 °F 58% 30.09 in 10.0 mi South 13.8 mph - N/A   Unknown
9:35 AM 17.6 °F 2.2 °F 6.8 °F 63% 30.09 in 10.0 mi South 17.3 mph - N/A   Unknown
9:55 AM 19.4 °F 4.5 °F 8.6 °F 63% 30.08 in 10.0 mi South 17.3 mph - N/A   Clear
10:15 AM 21.2 °F 7.3 °F 10.4 °F 63% 30.08 in 10.0 mi South 16.1 mph 24.2 mph N/A   Clear
10:35 AM 23.0 °F 10.1 °F 12.2 °F 63% 30.08 in 10.0 mi South 15.0 mph - N/A   Clear
10:55 AM 24.8 °F 11.9 °F 12.2 °F 59% 30.07 in 10.0 mi South 16.1 mph - N/A   Clear
11:15 AM 26.6 °F 14.3 °F 12.2 °F 55% 30.07 in 10.0 mi South 16.1 mph - N/A   Clear
11:35 AM 26.6 °F 14.7 °F 15.8 °F 64% 30.06 in 10.0 mi SSW 15.0 mph - N/A   Clear
11:55 AM 28.4 °F 17.0 °F 15.8 °F 59% 30.05 in 10.0 mi South 15.0 mph - N/A   Clear
12:15 PM 28.4 °F 17.0 °F 15.8 °F 59% 30.05 in 10.0 mi SSW 15.0 mph - N/A   Clear
12:35 PM 30.2 °F 19.3 °F 17.6 °F 60% 30.05 in 10.0 mi SSW 15.0 mph - N/A   Clear
12:55 PM 30.2 °F 20.2 °F 17.6 °F 60% 30.04 in 10.0 mi SSW 12.7 mph - N/A   Clear
1:15 PM 32.0 °F 22.1 °F 17.6 °F 55% 30.04 in 10.0 mi SSW 13.8 mph - N/A   Clear
1:35 PM 32.0 °F 23.0 °F 17.6 °F 55% 30.03 in 10.0 mi South 11.5 mph - N/A   Clear
1:55 PM 33.8 °F 24.8 °F 19.4 °F 56% 30.03 in 10.0 mi South 12.7 mph - N/A   Clear
2:15 PM 33.8 °F 24.3 °F 19.4 °F 56% 30.01 in 10.0 mi South 13.8 mph - N/A   Clear
2:35 PM 33.8 °F 24.3 °F 19.4 °F 56% 30.00 in 10.0 mi South 13.8 mph - N/A   Clear
2:55 PM 35.6 °F 26.2 °F 19.4 °F 52% 29.99 in 10.0 mi South 15.0 mph - N/A   Clear
3:15 PM 35.6 °F 27.1 °F 19.4 °F 52% 29.98 in 10.0 mi South 12.7 mph - N/A   Clear
3:35 PM 35.6 °F 27.1 °F 21.2 °F 56% 29.99 in 10.0 mi South 12.7 mph - N/A   Clear
3:55 PM 35.6 °F 27.1 °F 21.2 °F 56% 29.98 in 10.0 mi South 12.7 mph - N/A   Clear
4:15 PM 35.6 °F 26.6 °F 21.2 °F 56% 29.97 in 10.0 mi South 13.8 mph - N/A   Clear
4:35 PM 35.6 °F 27.1 °F 21.2 °F 56% 29.97 in 10.0 mi South 12.7 mph - N/A   Clear
4:55 PM 35.6 °F 26.6 °F 21.2 °F 56% 29.96 in 10.0 mi South 13.8 mph - N/A   Clear
5:15 PM 35.6 °F 28.0 °F 21.2 °F 56% 29.97 in 10.0 mi South 10.4 mph - N/A   Clear
5:35 PM 33.8 °F 25.8 °F 21.2 °F 60% 29.96 in 10.0 mi South 10.4 mph - N/A   Clear
5:55 PM 33.8 °F 25.8 °F 21.2 °F 60% 29.97 in 10.0 mi South 10.4 mph - N/A   Clear
6:15 PM 33.8 °F 25.8 °F 21.2 °F 60% 29.97 in 10.0 mi South 10.4 mph - N/A   Clear
6:35 PM 33.8 °F 27.0 °F 21.2 °F 60% 29.97 in 10.0 mi South 8.1 mph - N/A   Clear
6:55 PM 32.0 °F 25.6 °F 21.2 °F 64% 29.98 in 10.0 mi South 6.9 mph - N/A   Clear
7:15 PM 30.2 °F 24.3 °F 21.2 °F 69% 29.97 in 10.0 mi South 5.8 mph - N/A   Clear
7:35 PM 30.2 °F 22.6 °F 21.2 °F 69% 29.97 in 10.0 mi South 8.1 mph - N/A   Clear
7:55 PM 30.2 °F 21.9 °F 21.2 °F 69% 29.97 in 10.0 mi South 9.2 mph - N/A   Clear
8:15 PM 30.2 °F 21.9 °F 21.2 °F 69% 29.97 in 10.0 mi South 9.2 mph - N/A   Clear
8:35 PM 30.2 °F 21.9 °F 21.2 °F 69% 29.97 in 10.0 mi South 9.2 mph - N/A   Clear
8:55 PM 32.0 °F 24.2 °F 21.2 °F 64% 29.97 in 10.0 mi South 9.2 mph - N/A   Clear
9:15 PM 33.8 °F 25.3 °F 21.2 °F 60% 29.96 in 10.0 mi South 11.5 mph - N/A   Clear
9:35 PM 33.8 °F 24.8 °F 21.2 °F 60% 29.97 in 10.0 mi South 12.7 mph - N/A   Clear
9:55 PM 32.0 °F 24.2 °F 21.2 °F 64% 29.97 in 10.0 mi South 9.2 mph - N/A   Clear
10:15 PM 32.0 °F 24.2 °F 21.2 °F 64% 29.97 in 10.0 mi South 9.2 mph - N/A   Clear
10:35 PM 32.0 °F 24.2 °F 21.2 °F 64% 29.98 in 10.0 mi South 9.2 mph - N/A   Clear
10:55 PM 32.0 °F 24.8 °F 21.2 °F 64% 29.98 in 10.0 mi South 8.1 mph - N/A   Clear
11:15 PM 30.2 °F 24.3 °F 21.2 °F 69% 29.99 in 10.0 mi SSE 5.8 mph - N/A   Clear
11:35 PM 30.2 °F 23.4 °F 21.2 °F 69% 29.98 in 10.0 mi SSE 6.9 mph - N/A   Clear
11:55 PM 28.4 °F 21.2 °F 21.2 °F 74% 29.98 in 10.0 mi SSE 6.9 mph - N/A   Clear